17 maja 2022

Czas Kod Pogoda Temp. Widoczność Chmury Wiatr METAR/SPECI
16:00
V
29 °C 10 km+ - 200°   200° 11 kt METAR LFBD 171400Z AUTO 20011KT CAVOK 29/12 Q1017 BECMG 30010KT
15:30
V
28 °C 10 km+ - 210°   210° 14 kt METAR LFBD 171330Z AUTO 21014KT CAVOK 28/12 Q1017 BECMG 30010KT
15:00
V
29 °C 10 km+ - 220°   220° 14 kt METAR LFBD 171300Z AUTO 22014KT 190V250 CAVOK 29/13 Q1017 TEMPO 24015G25KT
14:30
V
29 °C 10 km+ - 230°   230° 14 kt METAR LFBD 171230Z AUTO 23014KT 190V250 CAVOK 29/13 Q1017 TEMPO 24015G25KT
14:00
V
29 °C 10 km+ - 240°   240° 11 kt METAR LFBD 171200Z AUTO 24011KT 210V270 CAVOK 29/13 Q1017 TEMPO 24015G25KT
13:30
V
29 °C 10 km+ - 210°   210° 11 kt METAR LFBD 171130Z AUTO 21011KT 160V240 CAVOK 29/12 Q1017 TEMPO 24015G25KT
13:00
V
28 °C 10 km+ - 220°   220° 10 kt METAR LFBD 171100Z AUTO 22010KT 180V250 CAVOK 28/13 Q1017 TEMPO 24015G25KT
12:30
V
28 °C 10 km+ - 220°   220° 13 kt METAR LFBD 171030Z AUTO 22013KT 180V260 CAVOK 28/13 Q1018 TEMPO 24015G25KT
12:00
V
28 °C 10 km+ - 230°   230° 12 kt METAR LFBD 171000Z AUTO 23012KT CAVOK 28/14 Q1018 NOSIG
11:30
V
27 °C 10 km+ - 220°   220° 8 kt METAR LFBD 170930Z AUTO 22008KT 180V250 CAVOK 27/14 Q1018 NOSIG
11:00
V
26 °C 10 km+ - 210°   210° 9 kt METAR LFBD 170900Z AUTO 21009KT 170V240 CAVOK 26/16 Q1018 NOSIG
10:30
V
26 °C 10 km+ - 170°   170° 10 kt METAR LFBD 170830Z AUTO 17010KT CAVOK 26/17 Q1018 BECMG 24010KT
10:00
V
25 °C 10 km+ - 150°   150° 8 kt METAR LFBD 170800Z AUTO 15008KT CAVOK 25/17 Q1018 BECMG 24010KT
09:30
V
23 °C 10 km+ - 150°   150° 7 kt METAR LFBD 170730Z AUTO 15007KT CAVOK 23/17 Q1018 BECMG 24010KT
09:00
V
22 °C 10 km+ - 130°   130° 6 kt METAR LFBD 170700Z AUTO 13006KT CAVOK 22/16 Q1017 BECMG 24010KT
08:30
V
21 °C 10 km+ - 120°   120° 6 kt METAR LFBD 170630Z AUTO 12006KT CAVOK 21/16 Q1017 BECMG 24010KT
08:00
V
20 °C 10 km+ - 100°   100° 6 kt METAR LFBD 170600Z AUTO 10006KT CAVOK 20/16 Q1017 NOSIG
07:30
V
19 °C 10 km+ - 100°   100° 6 kt METAR LFBD 170530Z AUTO 10006KT CAVOK 19/15 Q1017 NOSIG
07:00
V
18 °C 10 km+ - 100°   100° 5 kt METAR LFBD 170500Z AUTO 10005KT CAVOK 18/15 Q1017 NOSIG
06:30
V
18 °C 10 km+ - 110°   110° 5 kt METAR LFBD 170430Z AUTO 11005KT CAVOK 18/15 Q1017 NOSIG
06:00
V
19 °C 10 km+ - 100°   100° 5 kt METAR LFBD 170400Z AUTO 10005KT CAVOK 19/15 Q1017 NOSIG
05:30
V
19 °C 10 km+ - 100°   100° 5 kt METAR LFBD 170330Z AUTO 10005KT CAVOK 19/15 Q1017 NOSIG
05:00
V
19 °C 10 km+ - 100°   100° 5 kt METAR LFBD 170300Z AUTO 10005KT CAVOK 19/15 Q1017 NOSIG
04:30
V
19 °C 10 km+ - 100°   100° 6 kt METAR LFBD 170230Z AUTO 10006KT CAVOK 19/15 Q1017 NOSIG
04:00
V
18 °C 10 km+ - 090°   090° 4 kt METAR LFBD 170200Z AUTO 09004KT CAVOK 18/15 Q1017 NOSIG
03:30
V
18 °C 10 km+ - 080°   080° 3 kt METAR LFBD 170130Z AUTO 08003KT CAVOK 18/15 Q1017 NOSIG
03:00
V
18 °C 10 km+ - 090°   090° 3 kt METAR LFBD 170100Z AUTO 09003KT CAVOK 18/15 Q1018 NOSIG
02:30
V
19 °C 10 km+ - Var   000° 0 kt METAR LFBD 170030Z AUTO 00000KT CAVOK 19/15 Q1018 NOSIG
02:00
V
19 °C 10 km+ - Var   Var 1 kt METAR LFBD 170000Z AUTO VRB01KT CAVOK 19/15 Q1018 NOSIG
01:30
V
19 °C 10 km+ - 040°   040° 4 kt METAR LFBD 162330Z AUTO 04004KT CAVOK 19/15 Q1018 NOSIG
01:00
V
20 °C 10 km+ - 040°   040° 4 kt METAR LFBD 162300Z AUTO 04004KT CAVOK 20/15 Q1018 NOSIG
00:30
V
20 °C 10 km+ - 040°   040° 3 kt METAR LFBD 162230Z AUTO 04003KT CAVOK 20/15 Q1018 NOSIG
00:00
V
21 °C 10 km+ - 030°   030° 4 kt METAR LFBD 162200Z AUTO 03004KT CAVOK 21/14 Q1019 NOSIG

16 maja 2022

Czas Kod Pogoda Temp. Widoczność Chmury Wiatr METAR/SPECI
23:30
V
21 °C 10 km+ - 020°   020° 4 kt METAR LFBD 162130Z AUTO 02004KT CAVOK 21/14 Q1019 NOSIG
23:00
V
22 °C 10 km+ - 040°   040° 4 kt METAR LFBD 162100Z AUTO 04004KT 350V080 CAVOK 22/13 Q1018 NOSIG
22:30
V
23 °C 10 km+ - 040°   040° 4 kt METAR LFBD 162030Z AUTO 04004KT CAVOK 23/13 Q1018 NOSIG
22:00
V
23 °C 10 km+ - 050°   050° 6 kt METAR LFBD 162000Z AUTO 05006KT 020V080 CAVOK 23/13 Q1018 NOSIG
21:30
V
24 °C 10 km+ - 040°   040° 5 kt METAR LFBD 161930Z AUTO 04005KT 350V050 CAVOK 24/13 Q1018 NOSIG
21:00
V
25 °C 10 km+ - 010°   010° 5 kt METAR LFBD 161900Z AUTO 01005KT 340V040 CAVOK 25/11 Q1018 NOSIG
20:30
V
27 °C 10 km+ - 330°   330° 3 kt METAR LFBD 161830Z AUTO 33003KT CAVOK 27/09 Q1018 NOSIG
20:00
V
28 °C 10 km+ - Var   Var 3 kt METAR LFBD 161800Z AUTO VRB03KT CAVOK 28/11 Q1018 NOSIG
19:30
V
28 °C 10 km+ - Var   Var 2 kt METAR LFBD 161730Z AUTO VRB02KT CAVOK 28/11 Q1018 NOSIG
19:00
V
28 °C 10 km+ - Var   Var 2 kt METAR LFBD 161700Z AUTO VRB02KT CAVOK 28/10 Q1018 NOSIG
18:30
V
28 °C 10 km+ - 210°   210° 4 kt METAR LFBD 161630Z AUTO 21004KT 090V260 CAVOK 28/10 Q1018 NOSIG
18:00
V
28 °C 10 km+ - Var   Var 3 kt METAR LFBD 161600Z AUTO VRB03KT CAVOK 28/11 Q1018 TEMPO SCT050TCU
17:30
V
28 °C 10 km+ - 240°   240° 4 kt METAR LFBD 161530Z AUTO 24004KT 200V290 CAVOK 28/12 Q1018 TEMPO SCT050TCU
17:00
V
28 °C 10 km+ - Var   Var 3 kt METAR LFBD 161500Z AUTO VRB03KT CAVOK 28/12 Q1018 TEMPO SCT050TCU
16:30
V
27 °C 10 km+ - 220°   220° 7 kt METAR LFBD 161430Z AUTO 22007KT 190V250 CAVOK 27/12 Q1018 TEMPO SCT050TCU
16:00
V
27 °C 10 km+ - 210°   210° 8 kt METAR LFBD 161400Z AUTO 21008KT 170V250 CAVOK 27/12 Q1018 TEMPO SCT050TCU
15:30
V
27 °C 10 km+ - 200°   200° 8 kt METAR LFBD 161330Z AUTO 20008KT 160V240 CAVOK 27/13 Q1018 TEMPO SCT050TCU
15:00
V
27 °C 10 km+ - 190°   190° 7 kt METAR LFBD 161300Z AUTO 19007KT 160V270 CAVOK 27/14 Q1018 TEMPO SCT050TCU
14:30
V
26 °C 10 km+ - 200°   200° 8 kt METAR LFBD 161230Z AUTO 20008KT 130V240 9999 FEW048 26/14 Q1019 TEMPO SCT050TCU
14:00
V
26 °C 10 km+ - 210°   210° 6 kt METAR LFBD 161200Z AUTO 21006KT 150V320 9999 SCT048 26/14 Q1019 TEMPO SCT050TCU
13:30
V
26 °C 10 km+ - 200°   200° 8 kt METAR LFBD 161130Z AUTO 20008KT 170V230 9999 FEW039 26/14 Q1019 TEMPO SCT050TCU
13:00
V
25 °C 10 km+ - 170°   170° 6 kt METAR LFBD 161100Z AUTO 17006KT 140V220 9999 SCT036 SCT045 25/16 Q1019 NOSIG
12:30
V
25 °C 10 km+ - 140°   140° 6 kt METAR LFBD 161030Z AUTO 14006KT 100V200 9999 FEW028 25/18 Q1019 NOSIG
12:00
V
23 °C 10 km+ - 130°   130° 7 kt METAR LFBD 161000Z AUTO 13007KT 090V180 9999 FEW024 23/17 Q1019 NOSIG
11:30
V
23 °C 10 km+ - 130°   130° 7 kt METAR LFBD 160930Z AUTO 13007KT 100V160 9999 FEW021 23/17 Q1019 NOSIG
11:00
V
22 °C 10 km+ - 120°   120° 7 kt METAR LFBD 160900Z AUTO 12007KT 090V150 9999 ////// 22/17 Q1019
10:30
V
21 °C 10 km+ - 120°   120° 6 kt METAR LFBD 160830Z AUTO 12006KT 090V150 CAVOK 21/17 Q1018 NOSIG
10:00
V
21 °C 10 km+ - 120°   120° 6 kt METAR LFBD 160800Z AUTO 12006KT 080V150 CAVOK 21/17 Q1019 NOSIG
09:30
V
20 °C 10 km+ - 090°   090° 6 kt METAR LFBD 160730Z AUTO 09006KT 040V120 CAVOK 20/16 Q1018 NOSIG
09:00
V
19 °C 10 km+ - 100°   100° 5 kt METAR LFBD 160700Z AUTO 10005KT 9999 FEW006 19/17 Q1018 NOSIG
08:30
V
18 °C 10 km+ - 090°   090° 3 kt METAR LFBD 160630Z AUTO 09003KT 040V110 9999 FEW005 18/17 Q1018 NOSIG
08:00
M
18 °C 6 km - 080°   080° 4 kt METAR LFBD 160600Z AUTO 08004KT 050V110 6000 SCT002 18/17 Q1018 TEMPO 0700 BCFG BKN003
07:30
L
17 °C 450 m - 040°   040° 4 kt METAR LFBD 160530Z AUTO 04004KT 320V060 2200 0450 R23/2200D R05/0600N R29/P2300 BCFG FEW001 17/17 Q1018 TEMPO BKN003 BECMG 8000 NSW
07:00
L
17 °C 700 m - Var   Var 3 kt METAR LFBD 160500Z AUTO VRB03KT 3500 0700 R23/P2300 R05/1500D R29/P2300 BCFG FEW006 17/16 Q1017 TEMPO 2000 BR VV///
06:30
I
17 °C 2,4 km 500 ft 100°   100° 4 kt METAR LFBD 160430Z AUTO 10004KT 6000 2400 BKN005 OVC011 17/17 Q1017 TEMPO 2000 BR VV///
06:00
L
17 °C 500 m - Var   Var 2 kt METAR LFBD 160400Z AUTO VRB02KT 3600 0500 R23/P2300 R05/0600N R29/P2300 BCFG VV/// 17/17 Q1017 TEMPO 0500 FG
05:30
L
17 °C 500 m - Var   000° 0 kt METAR LFBD 160330Z AUTO 00000KT 0600 0500 R23/0450D R05/0750D R29/0650N FG VV/// 17/17 Q1017 TEMPO 2000 BR BKN005
05:00
M
16 °C 6 km - 110°   110° 3 kt METAR LFBD 160300Z AUTO 11003KT 6000 FEW004 SCT110 16/16 Q1017 TEMPO 2000 BR BKN005
04:30
L
16 °C 400 m - 080°   080° 3 kt METAR LFBD 160230Z AUTO 08003KT 040V130 5000 0400 R23/0900D R05/0350D R29/0800D BCFG NSC 16/16 Q1017 TEMPO 2000 BR BKN005
04:00
L
16 °C 550 m - Var   000° 0 kt METAR LFBD 160200Z AUTO 00000KT 2400 0550 R23/1500U R05/0700U R29/2000U BCFG NSC 16/16 Q1017 TEMPO BKN005
03:30
L
17 °C 600 m - Var   000° 0 kt METAR LFBD 160130Z AUTO 00000KT 5000 0600 R23/1800D R05/0750N R29/P2300 BCFG NSC 17/17 Q1017 TEMPO 2000 BR SCT040CB BKN050TCU
03:00
L
17 °C 900 m - 250°   250° 1 kt METAR LFBD 160100Z AUTO 25001KT 8000 0900 R23/P2300 R05/1000D R29/P2300 BCFG NSC 17/16 Q1017 TEMPO SCT040CB BKN050TCU
02:30
I
17 °C 3,5 km - 310°   310° 2 kt METAR LFBD 160030Z AUTO 31002KT 9999 3500 NSC 17/16 Q1017 TEMPO SCT040CB BKN050TCU
02:00
I
18 °C 2 km - Var   Var 2 kt METAR LFBD 160000Z AUTO VRB02KT 9999 2000 NSC 18/17 Q1017 TEMPO SCT040CB BKN050TCU
01:30
V
18 °C 10 km+ - Var   000° 0 kt METAR LFBD 152330Z AUTO 00000KT 9999 //////TCU 18/17 Q1017 TEMPO SCT040CB BKN050TCU
01:00
V
18 °C 10 km+ - Var   000° 0 kt METAR LFBD 152300Z AUTO 00000KT 9999 //////TCU 18/17 Q1017 TEMPO 4000 SHRA BKN050CB BECMG 26010KT
00:30
V
18 °C 10 km+ - 340°   340° 6 kt METAR LFBD 152230Z AUTO 34006KT 320V030 9999 //////CB 18/17 Q1016 TEMPO 4000 SHRA BECMG 26010KT
00:00
V
18 °C 10 km+ - Var   Var 3 kt METAR LFBD 152200Z AUTO VRB03KT 9999 -RA //////TCU 18/17 Q1017 TEMPO VRB15G30KT 2500 TSRA BKN050CB

15 maja 2022

Czas Kod Pogoda Temp. Widoczność Chmury Wiatr METAR/SPECI
23:30
V
18 °C 10 km+ - 190°   190° 2 kt METAR LFBD 152130Z AUTO 19002KT 9999 //////TCU 18/17 Q1016 TEMPO VRB15G30KT 2500 TSRA BKN050CB
23:00
V
18 °C 9 km - Var   Var 2 kt METAR LFBD 152100Z AUTO VRB02KT 9000 -RA ///TCU 18/18 Q1015 TEMPO VRB15G30KT 2500 TSRA BKN050CB
22:30
V
19 °C 10 km+ - 280°   280° 7 kt METAR LFBD 152030Z AUTO 28007KT 9999 //////TCU 19/18 Q1015 TEMPO VRB15G30KT 2500 TSRA BKN050CB
22:00
V
19 °C 10 km+ - Var   Var 2 kt METAR LFBD 152000Z AUTO VRB02KT 9999 //////TCU 19/18 Q1014 TEMPO VRB15G30KT 2500 TSRA BKN050CB
21:30
V
19 °C 10 km+ - 070°   070° 4 kt METAR LFBD 151930Z AUTO 07004KT 050V130 9999 ///CB 19/18 Q1014 TEMPO VRB15G30KT 2500 TSRA
21:00
V
19 °C 10 km+ 11.000 ft 360°   360° 5 kt METAR LFBD 151900Z AUTO 36005KT 300V100 9999 FEW042/// BKN110/// BKN130/// //////TCU 19/18 Q1014 TEMPO VRB15G30KT 2500 TSRA BKN050CB
20:30
I
19 °C 3,6 km 7.400 ft 160°   160° 13 23 kt METAR LFBD 151830Z AUTO 16013G23KT 3600 TSRA BR FEW034/// SCT056/// BKN074/// ///CB 19/17 Q1015 TEMPO 2500 TSRA
20:00
V
19 °C 10 km+ 9.000 ft 070°   070° 5 kt METAR LFBD 151800Z AUTO 07005KT 340V140 9999 FEW034/// BKN090/// BKN110/// //////CB 19/17 Q1013 TEMPO VRB15G30KT 1000 TSRA
19:30
V
19 °C 10 km+ 7.600 ft 110°   110° 9 kt METAR LFBD 151730Z AUTO 11009KT 9999 -TSRA FEW025/// SCT050/// BKN076/// //////CB 19/17 Q1013 TEMPO VRB15G30KT 1000 TSRA
19:00
I
23 °C 3,6 km - 210°   210° 18 34 kt METAR LFBD 151700Z AUTO 21018G34KT 160V290 9999 3600 TSRA ///CB 23/14 Q1013 TEMPO 2500 TSRA
18:30
V
28 °C 10 km+ - 280°   280° 15 kt METAR LFBD 151630Z AUTO 28015KT 9999 TS //////CB 28/12 Q1011 TEMPO VRB15G30KT 2500 TSRA
18:00
V
28 °C 10 km+ - 290°   290° 17 kt METAR LFBD 151600Z AUTO 29017KT 9999 VCTS ///CB 28/14 Q1011 TEMPO VRB15G30KT 2500 TSRA
17:30
V
30 °C 10 km+ - 280°   280° 12 kt METAR LFBD 151530Z AUTO 28012KT 9999 ///CB 30/13 Q1011 TEMPO VRB15G30KT 2500 TSRA
17:00
V
30 °C 10 km+ - 250°   250° 14 kt METAR LFBD 151500Z AUTO 25014KT 220V280 CAVOK 30/13 Q1011 TEMPO VRB15G30KT 2500 TSRA BKN050CB
Starsze dane

Pobierz naszą aplikację

Łatwy dostęp do całej pogody lotniczej na telefonie komórkowym i tablecie.
Z wieloma funkcjami niedostępnymi na stronie internetowej, takimi jak wsparcie offline i osobista lista lotnisk.